Time;durP1;ratioP1;P1;durP2;ratioP2;P2;SDS_P1;SDS_P2;PMS_P1;PMS_P2;Temp;Humidity;BMP_temperature;BMP_pressure;BME280_temperature;BME280_humidity;BME280_pressure;Samples;Min_cycle;Max_cycle;Signal;HPM_P1;HPM_P2
2021/08/13 00:01:42;;;;;;;8.83;4.90;;;;;;;19.09;76.48;101230.09;124794;1093;64281;-80
2021/08/13 00:04:09;;;;;;;11.63;5.30;;;;;;;19.07;76.48;101232.17;124760;1093;64339;-79
2021/08/13 00:06:40;;;;;;;14.33;4.67;;;;;;;19.06;76.68;101237.77;124819;1093;64358;-79
2021/08/13 00:09:08;;;;;;;7.60;5.90;;;;;;;19.01;76.79;101238.42;124758;1093;64394;-79
2021/08/13 00:11:37;;;;;;;10.90;5.20;;;;;;;18.98;76.85;101236.19;124760;1093;64288;-79
2021/08/13 00:14:06;;;;;;;10.53;4.83;;;;;;;18.94;76.89;101235.78;124948;1093;64878;-78
2021/08/13 00:16:34;;;;;;;11.03;4.83;;;;;;;18.92;76.98;101235.17;124763;1093;64192;-79
2021/08/13 00:19:02;;;;;;;10.57;5.37;;;;;;;18.87;77.18;101242.23;124829;1093;64314;-78
2021/08/13 00:21:29;;;;;;;9.77;4.53;;;;;;;18.85;76.93;101241.63;124810;1092;64298;-79
2021/08/13 00:23:57;;;;;;;11.30;4.90;;;;;;;18.84;77.44;101256.13;124798;1093;64922;-75
2021/08/13 00:26:24;;;;;;;9.15;5.50;;;;;;;18.80;77.85;101258.41;124751;1092;64275;-81
2021/08/13 00:28:51;;;;;;;13.40;5.87;;;;;;;18.78;78.14;101256.95;124804;1093;64230;-78
2021/08/13 00:31:18;;;;;;;11.37;5.20;;;;;;;18.78;78.03;101262.32;124823;1093;64320;-79
2021/08/13 00:33:48;;;;;;;10.27;6.27;;;;;;;18.78;78.31;101259.64;124874;1092;64295;-77
2021/08/13 00:36:15;;;;;;;8.30;6.37;;;;;;;18.75;78.34;101261.71;124898;1093;64288;-78
2021/08/13 00:38:43;;;;;;;10.93;6.23;;;;;;;18.73;78.40;101266.48;124799;1093;64307;-78
2021/08/13 00:41:10;;;;;;;12.07;6.70;;;;;;;18.70;78.20;101269.61;124646;1093;64291;-83
2021/08/13 00:43:37;;;;;;;8.50;6.37;;;;;;;18.69;78.10;101270.63;124724;1093;64342;-80
2021/08/13 00:46:05;;;;;;;15.80;6.57;;;;;;;18.68;78.07;101270.84;124744;1093;64313;-78
2021/08/13 00:48:32;;;;;;;12.07;6.03;;;;;;;18.68;78.42;101277.06;124746;1092;64560;-82
2021/08/13 00:51:00;;;;;;;14.07;6.53;;;;;;;18.66;77.97;101281.01;124780;1093;64256;-77
2021/08/13 00:53:27;;;;;;;10.17;5.90;;;;;;;18.65;78.31;101282.84;124763;1093;64348;-78
2021/08/13 00:55:54;;;;;;;9.83;6.40;;;;;;;18.64;78.22;101278.52;124761;1093;64291;-79
2021/08/13 00:58:22;;;;;;;11.03;6.03;;;;;;;18.64;78.40;101281.21;124815;1092;64716;-77
2021/08/13 01:00:51;;;;;;;7.63;5.67;;;;;;;18.63;78.25;101284.92;124784;1093;64394;-79
2021/08/13 01:03:19;;;;;;;10.97;6.07;;;;;;;18.64;78.43;101281.21;124892;1092;64284;-77
2021/08/13 01:05:46;;;;;;;14.80;6.50;;;;;;;18.62;78.11;101267.17;124858;1092;64368;-77
2021/08/13 01:08:13;;;;;;;9.97;6.10;;;;;;;18.60;77.63;101269.24;124707;1093;64195;-79
2021/08/13 01:10:53;;;;;;;11.50;6.23;;;;;;;18.57;78.27;101275.02;124772;1093;64207;-77
2021/08/13 01:13:34;;;;;;;10.30;6.10;;;;;;;18.54;78.53;101264.72;124756;1093;64272;-83
2021/08/13 01:16:05;;;;;;;7.17;6.07;;;;;;;18.53;78.21;101271.11;124887;1093;64275;-79
2021/08/13 01:18:37;;;;;;;15.95;6.50;;;;;;;18.50;78.69;101258.13;124876;1093;64237;-80
2021/08/13 01:21:25;;;;;;;10.10;6.47;;;;;;;18.47;78.96;101264.75;124806;1093;64321;-79
2021/08/13 01:23:58;;;;;;;11.50;6.60;;;;;;;18.44;79.25;101261.66;124809;1092;64249;-79
2021/08/13 01:26:33;;;;;;;8.85;5.75;;;;;;;18.39;79.47;101256.11;124792;1093;64265;-79
2021/08/13 01:29:06;;;;;;;13.18;5.70;;;;;;;18.33;79.15;101258.59;124788;1093;64230;-79
2021/08/13 01:31:46;;;;;;;11.87;5.70;;;;;;;18.28;79.73;101262.97;124866;1093;64288;-79
2021/08/13 01:34:18;;;;;;;9.40;6.03;;;;;;;18.22;79.95;101267.32;124683;1093;64435;-77
2021/08/13 01:36:49;;;;;;;14.77;6.20;;;;;;;18.17;79.95;101264.45;124800;1092;64243;-79
2021/08/13 01:39:18;;;;;;;14.37;6.43;;;;;;;18.11;80.31;101267.98;124747;1092;64754;-79
2021/08/13 01:41:47;;;;;;;10.03;6.40;;;;;;;18.05;80.58;101266.14;124903;1093;64245;-78
2021/08/13 01:44:15;;;;;;;13.03;6.63;;;;;;;17.98;80.71;101259.94;124741;1094;64298;-79
2021/08/13 01:46:43;;;;;;;9.93;6.70;;;;;;;17.94;80.85;101262.23;124722;1093;64754;-82
2021/08/13 01:49:13;;;;;;;11.13;6.33;;;;;;;17.88;81.02;101260.39;124911;1092;64289;-77
2021/08/13 01:51:41;;;;;;;11.07;6.93;;;;;;;17.82;81.16;101256.67;124786;1093;64304;-77
2021/08/13 01:54:09;;;;;;;9.50;6.20;;;;;;;17.77;81.37;101269.88;125009;1093;64221;-77
2021/08/13 01:56:37;;;;;;;12.40;5.87;;;;;;;17.72;81.60;101275.02;124909;1092;64217;-78
2021/08/13 01:59:05;;;;;;;10.43;6.27;;;;;;;17.67;81.86;101269.47;124722;1093;64320;-79
2021/08/13 02:01:35;;;;;;;10.25;5.90;;;;;;;17.63;81.94;101268.23;124931;1093;64272;-77
2021/08/13 02:04:04;;;;;;;8.00;6.37;;;;;;;17.56;82.11;101272.78;125008;1093;64198;-77
2021/08/13 02:06:34;;;;;;;14.40;7.00;;;;;;;17.49;82.46;101278.98;124960;1093;64275;-78
2021/08/13 02:09:03;;;;;;;10.60;6.97;;;;;;;17.42;82.64;101286.17;124833;1093;64275;-75
2021/08/13 02:11:32;;;;;;;7.53;5.53;;;;;;;17.34;82.80;101289.09;124801;1093;64387;-79
2021/08/13 02:14:00;;;;;;;13.93;7.60;;;;;;;17.27;82.94;101274.83;124870;1092;64294;-78
2021/08/13 02:16:30;;;;;;;12.30;6.77;;;;;;;17.21;83.20;101259.55;124939;1093;64752;-81
2021/08/13 02:19:06;;;;;;;17.50;6.97;;;;;;;17.14;83.22;101261.42;124897;1093;64275;-79
2021/08/13 02:21:38;;;;;;;9.80;6.50;;;;;;;17.08;84.01;101271.09;124883;1093;64320;-79
2021/08/13 02:24:05;;;;;;;14.37;6.90;;;;;;;17.03;85.09;101269.02;124779;1092;64323;-77
2021/08/13 02:26:32;;;;;;;11.37;6.43;;;;;;;17.01;85.07;101260.36;124759;1093;64311;-78
2021/08/13 02:29:01;;;;;;;12.10;6.63;;;;;;;16.99;85.08;101266.96;124881;1093;64275;-78
2021/08/13 02:31:30;;;;;;;11.87;6.13;;;;;;;16.97;85.04;101264.47;124901;1093;64252;-78
2021/08/13 02:33:57;;;;;;;12.27;6.23;;;;;;;16.93;84.80;101263.23;124912;1093;64255;-77
2021/08/13 02:36:34;;;;;;;8.53;5.77;;;;;;;16.89;84.87;101256.63;124736;1093;64435;-77
2021/08/13 02:39:07;;;;;;;16.50;7.73;;;;;;;16.86;85.37;101260.54;124825;1093;64260;-80
2021/08/13 02:41:36;;;;;;;9.47;6.67;;;;;;;16.84;85.25;101264.45;124791;1093;64283;-79
2021/08/13 02:44:05;;;;;;;14.67;6.73;;;;;;;16.80;85.26;101264.02;124947;1092;64280;-79
2021/08/13 02:46:38;;;;;;;16.37;6.43;;;;;;;16.77;85.61;101268.95;124934;1093;64272;-79
2021/08/13 02:49:09;;;;;;;12.17;6.93;;;;;;;16.74;85.17;101266.66;124865;1091;64293;-79
2021/08/13 02:51:40;;;;;;;11.47;6.47;;;;;;;16.66;85.52;101260.46;124760;1091;64288;-80
2021/08/13 02:54:16;;;;;;;10.85;6.70;;;;;;;16.62;85.39;101267.25;124776;1092;64291;-79
2021/08/13 02:56:46;;;;;;;12.97;6.60;;;;;;;16.56;85.62;101262.69;124780;1093;64176;-79
2021/08/13 02:59:17;;;;;;;8.55;6.35;;;;;;;16.53;85.99;101272.97;124748;1093;64786;-78
2021/08/13 03:01:45;;;;;;;12.77;7.17;;;;;;;16.46;86.09;101273.77;124716;1093;64263;-74
2021/08/13 03:04:14;;;;;;;12.67;7.23;;;;;;;16.42;86.64;101261.80;124745;1093;64310;-77
2021/08/13 03:06:43;;;;;;;12.17;7.00;;;;;;;16.40;86.70;101273.73;124809;1093;64291;-79
2021/08/13 03:09:11;;;;;;;11.27;6.90;;;;;;;16.35;86.72;101265.48;124825;1093;64368;-77
2021/08/13 03:11:41;;;;;;;9.13;6.40;;;;;;;16.28;87.08;101263.61;124805;1093;64316;-78
2021/08/13 03:14:10;;;;;;;10.00;6.47;;;;;;;16.24;87.66;101261.53;125076;1093;64313;-80
2021/08/13 03:16:38;;;;;;;12.37;6.70;;;;;;;16.20;88.08;101258.41;125032;1093;64272;-79
2021/08/13 03:19:06;;;;;;;13.70;7.30;;;;;;;16.17;88.26;101263.33;124922;1093;64224;-78
2021/08/13 03:21:34;;;;;;;12.57;7.37;;;;;;;16.15;88.94;101257.34;124726;1093;64670;-77
2021/08/13 03:24:02;;;;;;;10.83;6.37;;;;;;;16.15;89.00;101257.34;124865;1092;64249;-77
2021/08/13 03:26:30;;;;;;;12.90;6.93;;;;;;;16.15;88.58;101255.52;124814;1090;64237;-77
2021/08/13 03:28:58;;;;;;;10.55;7.15;;;;;;;16.16;88.84;101257.16;124828;1093;64226;-79
2021/08/13 03:31:38;;;;;;;10.43;5.50;;;;;;;16.18;88.56;101259.64;124831;1093;64275;-78
2021/08/13 03:34:08;;;;;;;9.63;6.80;;;;;;;16.17;88.68;101248.12;124812;1091;64272;-78
2021/08/13 03:36:37;;;;;;;12.87;6.17;;;;;;;16.16;88.70;101251.80;124758;1093;64272;-79
2021/08/13 03:39:06;;;;;;;10.87;5.93;;;;;;;16.18;88.93;101254.28;125027;1093;64400;-79
2021/08/13 03:41:34;;;;;;;11.47;6.10;;;;;;;16.19;89.00;101259.42;124974;1093;64316;-83
2021/08/13 03:44:01;;;;;;;10.37;6.53;;;;;;;16.21;88.64;101259.23;124817;1093;64288;-80
2021/08/13 03:46:29;;;;;;;10.53;7.00;;;;;;;16.22;88.54;101256.36;124766;1093;64291;-78
2021/08/13 03:48:56;;;;;;;10.87;6.47;;;;;;;16.23;88.68;101254.51;124774;1093;64271;-77
2021/08/13 03:51:23;;;;;;;9.10;5.70;;;;;;;16.23;88.55;101260.68;124749;1093;64268;-77
2021/08/13 03:53:50;;;;;;;9.00;5.97;;;;;;;16.23;88.38;101260.68;124772;1092;64409;-81
2021/08/13 03:56:17;;;;;;;9.63;6.00;;;;;;;16.23;88.29;101258.00;124779;1093;64269;-79
2021/08/13 03:58:44;;;;;;;11.37;6.47;;;;;;;16.22;88.32;101255.55;124764;1093;64371;-79
2021/08/13 04:01:11;;;;;;;13.07;6.27;;;;;;;16.21;88.06;101261.91;124814;1093;64323;-78
2021/08/13 04:03:39;;;;;;;9.53;6.30;;;;;;;16.20;88.15;101257.59;124681;1092;64352;-77
2021/08/13 04:06:06;;;;;;;8.67;6.10;;;;;;;16.19;88.22;101261.28;124836;1093;64220;-77
2021/08/13 04:08:33;;;;;;;9.63;5.97;;;;;;;16.19;88.54;101261.28;124810;1093;64268;-84
2021/08/13 04:11:00;;;;;;;9.97;6.57;;;;;;;16.19;88.20;101264.77;124826;1092;64291;-79
2021/08/13 04:13:27;;;;;;;11.27;7.07;;;;;;;16.19;88.23;101263.95;124819;1092;64272;-77
2021/08/13 04:15:54;;;;;;;8.90;6.13;;;;;;;16.19;88.45;101264.77;124801;1093;64310;-77
2021/08/13 04:18:21;;;;;;;27.33;6.93;;;;;;;16.19;88.31;101278.16;124767;1093;64217;-81
2021/08/13 04:20:48;;;;;;;8.57;6.40;;;;;;;16.19;88.46;101282.69;124799;1093;64234;-79
2021/08/13 04:23:16;;;;;;;8.53;6.40;;;;;;;16.20;88.36;101279.01;124939;1092;64355;-77
2021/08/13 04:25:43;;;;;;;10.23;6.03;;;;;;;16.22;88.28;101277.78;125162;1092;64281;-76
2021/08/13 04:28:10;;;;;;;14.80;6.50;;;;;;;16.25;88.05;101281.91;124961;1092;64282;-78
2021/08/13 04:30:37;;;;;;;7.83;5.80;;;;;;;16.27;88.12;101269.97;124958;1092;64374;-75
2021/08/13 04:33:12;;;;;;;9.90;6.17;;;;;;;16.28;87.92;101271.64;124973;1093;64275;-78
2021/08/13 04:35:39;;;;;;;8.90;5.43;;;;;;;16.29;88.13;101267.92;124896;1093;64360;-78
2021/08/13 04:38:07;;;;;;;11.17;5.83;;;;;;;16.33;88.36;101267.54;124976;1092;64272;-78
2021/08/13 04:40:34;;;;;;;9.13;5.40;;;;;;;16.36;88.41;101275.98;124760;1092;64410;-77
2021/08/13 04:43:01;;;;;;;11.03;6.50;;;;;;;16.43;88.04;101274.17;124843;1093;64349;-80
2021/08/13 04:45:28;;;;;;;8.95;5.90;;;;;;;16.51;88.15;101259.77;124806;1093;64295;-81
2021/08/13 04:47:56;;;;;;;9.60;6.03;;;;;;;16.58;87.57;101257.95;124806;1093;64288;-80
2021/08/13 04:50:23;;;;;;;9.80;5.43;;;;;;;16.63;87.58;101258.17;124755;1092;64345;-77
2021/08/13 04:52:51;;;;;;;9.30;5.83;;;;;;;16.68;87.52;101254.88;124805;1093;65466;-78
2021/08/13 04:55:23;;;;;;;6.73;5.00;;;;;;;16.74;87.46;101256.76;124920;1093;64294;-80
2021/08/13 04:57:52;;;;;;;7.13;5.20;;;;;;;16.82;87.46;101253.11;124825;1093;64297;-79
2021/08/13 05:00:20;;;;;;;10.50;5.50;;;;;;;16.89;87.33;101251.26;124943;1093;64285;-79
2021/08/13 05:02:47;;;;;;;12.07;6.20;;;;;;;16.95;86.85;101258.49;124840;1093;64317;-79
2021/08/13 05:05:15;;;;;;;10.60;6.60;;;;;;;17.03;86.83;101263.66;124751;1093;64295;-79
2021/08/13 05:07:42;;;;;;;9.80;5.50;;;;;;;17.11;86.40;101262.66;124789;1093;64218;-80
2021/08/13 05:10:13;;;;;;;7.97;5.20;;;;;;;17.19;86.08;101258.94;124718;1093;64374;-78
2021/08/13 05:12:40;;;;;;;10.17;5.33;;;;;;;17.25;85.76;101271.52;124840;1092;64265;-78
2021/08/13 05:15:09;;;;;;;9.30;5.43;;;;;;;17.30;85.39;101274.44;124759;1092;64272;-75
2021/08/13 05:17:37;;;;;;;7.50;4.85;;;;;;;17.33;85.36;101268.64;124825;1092;64442;-78
2021/08/13 05:20:06;;;;;;;10.67;6.00;;;;;;;17.39;85.05;101275.88;124761;1093;64403;-78
2021/08/13 05:22:34;;;;;;;8.23;5.33;;;;;;;17.41;84.83;101263.08;124817;1093;64732;-80
2021/08/13 05:25:14;;;;;;;8.13;5.13;;;;;;;17.43;84.49;101269.07;124869;1093;64272;-79
2021/08/13 05:27:42;;;;;;;9.33;5.73;;;;;;;17.44;84.41;101265.34;124834;1093;64198;-80
2021/08/13 05:30:11;;;;;;;8.53;5.13;;;;;;;17.47;84.27;101270.31;124869;1093;64335;-78
2021/08/13 05:32:40;;;;;;;9.45;5.00;;;;;;;17.48;84.19;101269.27;125084;1093;64285;-80
2021/08/13 05:35:09;;;;;;;9.53;5.10;;;;;;;17.57;84.30;101272.55;124997;1093;64192;-77
2021/08/13 05:37:36;;;;;;;10.07;5.43;;;;;;;17.69;83.93;101278.14;124804;1093;64249;-78
2021/08/13 05:40:16;;;;;;;14.40;5.77;;;;;;;17.78;83.55;101266.14;124809;1093;64268;-77
2021/08/13 05:42:46;;;;;;;11.70;5.87;;;;;;;17.89;83.23;101273.61;124817;1093;64492;-79
2021/08/13 05:45:13;;;;;;;9.00;5.70;;;;;;;17.99;83.07;101275.03;124865;1092;64198;-77
2021/08/13 05:47:40;;;;;;;10.87;5.80;;;;;;;18.09;82.63;101273.55;124773;1093;64323;-80
2021/08/13 05:50:09;;;;;;;10.80;5.37;;;;;;;18.19;82.38;101270.45;124783;1093;64294;-80
2021/08/13 05:52:36;;;;;;;9.70;5.47;;;;;;;18.28;81.57;101277.22;124801;1093;64327;-78
2021/08/13 05:55:04;;;;;;;8.27;4.77;;;;;;;18.37;81.14;101274.30;124820;1092;63415;-79
2021/08/13 05:57:31;;;;;;;10.27;5.23;;;;;;;18.41;80.43;101278.22;124806;1093;64239;-78
2021/08/13 05:59:58;;;;;;;10.43;5.03;;;;;;;18.48;80.44;101284.38;124770;1093;64269;-76
2021/08/13 06:02:25;;;;;;;9.57;4.97;;;;;;;18.55;80.10;101277.10;124855;1092;64224;-79
2021/08/13 06:04:56;;;;;;;6.23;4.80;;;;;;;18.64;80.44;101270.47;124744;1093;64419;-80
2021/08/13 06:07:24;;;;;;;8.57;5.13;;;;;;;18.77;79.81;101274.94;124813;1093;64237;-82
2021/08/13 06:09:51;;;;;;;6.50;4.40;;;;;;;18.85;79.13;101274.73;124782;1093;64275;-78
2021/08/13 06:12:19;;;;;;;7.03;4.93;;;;;;;18.95;79.37;101268.86;124758;1093;64211;-79
2021/08/13 06:14:46;;;;;;;10.47;5.60;;;;;;;19.08;78.67;101273.33;124828;1093;64217;-77
2021/08/13 06:17:13;;;;;;;8.60;4.35;;;;;;;19.20;78.07;101279.66;124838;1093;64295;-78
2021/08/13 06:19:41;;;;;;;10.50;5.13;;;;;;;19.29;77.56;101280.22;124716;1093;64237;-77
2021/08/13 06:22:08;;;;;;;8.45;5.45;;;;;;;19.38;77.41;101276.23;124900;1093;64291;-80
2021/08/13 06:24:35;;;;;;;11.97;5.03;;;;;;;19.48;76.71;101276.54;124939;1092;64291;-77
2021/08/13 06:27:02;;;;;;;9.53;5.33;;;;;;;19.53;75.92;101278.60;124789;1093;64430;-79
2021/08/13 06:29:29;;;;;;;10.55;5.35;;;;;;;19.61;75.50;101277.48;124880;1093;64246;-78
2021/08/13 06:31:56;;;;;;;10.77;4.93;;;;;;;19.76;75.30;101272.59;124803;1093;64317;-80
2021/08/13 06:34:23;;;;;;;10.43;4.57;;;;;;;19.92;75.56;101276.60;124999;1093;64307;-79
2021/08/13 06:36:50;;;;;;;6.60;5.43;;;;;;;20.11;74.58;101280.95;125006;1093;64251;-80
2021/08/13 06:39:17;;;;;;;10.13;6.03;;;;;;;20.25;74.46;101270.86;124953;1091;64291;-79
2021/08/13 06:42:07;;;;;;;6.43;4.30;;;;;;;20.29;73.21;101276.60;124805;1092;64294;-80
2021/08/13 06:44:34;;;;;;;7.70;5.10;;;;;;;20.30;73.27;101273.69;124760;1092;64333;-78
2021/08/13 06:47:02;;;;;;;11.40;5.63;;;;;;;20.34;72.55;101274.89;124813;1092;64331;-80
2021/08/13 06:49:29;;;;;;;8.27;5.03;;;;;;;20.47;72.78;101273.09;124997;1093;64266;-78
2021/08/13 06:51:56;;;;;;;13.07;5.03;;;;;;;20.62;73.25;101272.72;125066;1092;64190;-80
2021/08/13 06:54:23;;;;;;;8.73;5.30;;;;;;;20.77;72.67;101268.55;124888;1092;64297;-79
2021/08/13 06:56:50;;;;;;;6.93;4.30;;;;;;;20.95;72.57;101264.15;124774;1093;64329;-78
2021/08/13 06:59:17;;;;;;;8.07;4.37;;;;;;;21.16;71.33;101269.00;124780;1093;65430;-78
2021/08/13 07:01:44;;;;;;;8.23;4.47;;;;;;;21.34;71.06;101272.70;124706;1093;64369;-79
2021/08/13 07:04:12;;;;;;;9.30;4.80;;;;;;;21.51;70.77;101276.38;124793;1093;64365;-77
2021/08/13 07:06:39;;;;;;;9.67;4.30;;;;;;;21.70;70.04;101273.58;124808;1093;64365;-80
2021/08/13 07:09:06;;;;;;;7.80;4.93;;;;;;;21.87;69.91;101271.81;124868;1093;64372;-78
2021/08/13 07:11:33;;;;;;;5.10;3.60;;;;;;;22.06;68.89;101268.95;124864;1093;64272;-78
2021/08/13 07:14:00;;;;;;;5.30;3.53;;;;;;;22.24;68.09;101266.13;124789;1092;64317;-78
2021/08/13 07:16:27;;;;;;;7.53;4.77;;;;;;;22.44;66.88;101268.45;124771;1093;64310;-79
2021/08/13 07:18:54;;;;;;;5.60;4.20;;;;;;;22.66;66.31;101273.18;124713;1093;64283;-81
2021/08/13 07:21:21;;;;;;;9.03;4.70;;;;;;;22.82;63.49;101275.09;125076;1093;64291;-77
2021/08/13 07:23:48;;;;;;;7.70;4.13;;;;;;;;;;125252;1093;64371;-79
2021/08/13 07:26:15;;;;;;;6.50;4.30;;;;;;;22.99;61.77;101269.71;124984;1093;64297;-78
2021/08/13 07:28:43;;;;;;;6.83;4.47;;;;;;;22.96;60.43;101262.09;125173;1092;64383;-78
2021/08/13 07:31:10;;;;;;;7.30;4.60;;;;;;;22.91;61.16;101272.80;124967;1092;64754;-78
2021/08/13 07:33:37;;;;;;;9.60;5.17;;;;;;;22.82;60.96;101268.86;124847;1093;64288;-78
2021/08/13 07:36:04;;;;;;;7.03;4.00;;;;;;;22.75;61.85;101269.83;124812;1092;64374;-78
2021/08/13 07:38:35;;;;;;;8.27;4.47;;;;;;;22.71;62.00;101276.78;124823;1093;64760;-78
2021/08/13 07:41:02;;;;;;;5.87;3.47;;;;;;;22.77;62.73;101273.12;124777;1093;64310;-78
2021/08/13 07:43:29;;;;;;;6.80;4.00;;;;;;;22.78;62.63;101263.95;124700;1093;64355;-79
2021/08/13 07:45:56;;;;;;;6.97;4.03;;;;;;;22.76;62.74;101257.97;124703;1093;64412;-77
2021/08/13 07:48:23;;;;;;;9.70;3.47;;;;;;;22.79;62.20;101260.17;124809;1093;64298;-80
2021/08/13 07:50:50;;;;;;;6.13;4.63;;;;;;;22.94;62.71;101256.11;124894;1092;64297;-78
2021/08/13 07:53:17;;;;;;;8.50;4.10;;;;;;;23.11;62.75;101259.67;124787;1093;64275;-78
2021/08/13 07:55:44;;;;;;;7.65;4.20;;;;;;;23.31;62.17;101263.78;124836;1093;64300;-79
2021/08/13 07:58:11;;;;;;;5.93;4.00;;;;;;;23.49;60.04;101277.08;124743;1093;64310;-77
2021/08/13 08:00:39;;;;;;;5.93;4.20;;;;;;;23.66;59.47;101287.90;124787;1092;64364;-77
2021/08/13 08:03:07;;;;;;;8.10;5.77;;;;;;;23.82;57.90;101275.41;124847;1093;64303;-79
2021/08/13 08:05:35;;;;;;;8.03;5.57;;;;;;;23.96;57.52;101271.28;124849;1093;64195;-80
2021/08/13 08:08:02;;;;;;;8.37;5.23;;;;;;;24.17;58.00;101276.98;124870;1092;64368;-78
2021/08/13 08:10:29;;;;;;;7.67;4.63;;;;;;;24.37;57.61;101281.83;124796;1092;64387;-79
2021/08/13 08:12:56;;;;;;;7.83;3.90;;;;;;;24.54;57.63;101281.78;124804;1093;64346;-79
2021/08/13 08:15:24;;;;;;;13.80;6.20;;;;;;;24.66;56.41;101290.61;124833;1093;64294;-79
2021/08/13 08:17:51;;;;;;;8.83;4.90;;;;;;;24.78;57.19;101299.42;124912;1093;64683;-78
2021/08/13 08:20:19;;;;;;;6.60;4.35;;;;;;;24.91;56.40;101286.53;124892;1092;64217;-80
2021/08/13 08:22:46;;;;;;;9.63;5.60;;;;;;;25.06;55.08;101299.43;124782;1093;64457;-79
2021/08/13 08:25:13;;;;;;;7.83;5.00;;;;;;;25.19;55.92;101294.38;124740;1093;64309;-77
2021/08/13 08:27:40;;;;;;;8.20;4.90;;;;;;;25.35;54.33;101297.25;125123;1093;64275;-77
2021/08/13 08:30:08;;;;;;;9.00;4.93;;;;;;;25.49;51.98;101297.64;125007;1093;64298;-78
2021/08/13 08:32:35;;;;;;;6.40;4.73;;;;;;;25.62;51.98;101294.47;124849;1093;64278;-81
2021/08/13 08:35:02;;;;;;;7.40;4.80;;;;;;;25.76;51.34;101300.28;124852;1093;64303;-78
2021/08/13 08:37:55;;;;;;;7.60;4.03;;;;;;;25.84;50.94;101294.33;125037;1092;64294;-79
2021/08/13 08:40:36;;;;;;;7.67;4.90;;;;;;;25.94;51.01;101299.05;125050;1093;64367;-79
2021/08/13 08:43:09;;;;;;;6.90;3.70;;;;;;;26.00;50.78;101287.13;124820;1093;64200;-78
2021/08/13 08:45:38;;;;;;;6.90;4.43;;;;;;;26.07;51.23;101289.60;124933;1092;64269;-78
2021/08/13 08:48:10;;;;;;;8.37;4.60;;;;;;;26.19;50.81;101284.77;124997;1093;64275;-80
2021/08/13 08:50:40;;;;;;;7.90;4.07;;;;;;;26.34;49.94;101276.66;124880;1092;64307;-79
2021/08/13 08:53:23;;;;;;;6.83;4.23;;;;;;;26.53;49.70;101278.91;124934;1092;64272;-77
2021/08/13 08:55:51;;;;;;;6.50;4.73;;;;;;;26.71;48.40;101274.89;124959;1093;64275;-80
2021/08/13 08:58:20;;;;;;;7.80;4.50;;;;;;;26.75;45.58;101279.52;125028;1093;64237;-79
2021/08/13 09:00:48;;;;;;;6.50;4.50;;;;;;;26.80;44.76;101279.55;125068;1092;64297;-79
2021/08/13 09:03:17;;;;;;;5.90;4.20;;;;;;;26.83;44.76;101280.91;124754;1093;64342;-80
2021/08/13 09:05:44;;;;;;;7.33;4.47;;;;;;;26.92;45.26;101282.00;125003;1093;64272;-77
2021/08/13 09:08:11;;;;;;;8.67;4.57;;;;;;;26.94;45.46;101281.73;124783;1092;64879;-78
2021/08/13 09:10:41;;;;;;;9.30;4.93;;;;;;;27.01;45.71;101285.00;124850;1093;64268;-78
2021/08/13 09:13:09;;;;;;;6.50;4.40;;;;;;;27.14;45.50;101284.48;125128;1093;63384;-79
2021/08/13 09:15:40;;;;;;;7.10;3.83;;;;;;;27.24;45.37;101279.08;125010;1093;64288;-78
2021/08/13 09:18:11;;;;;;;5.20;3.73;;;;;;;27.34;45.12;101277.42;124893;1093;64355;-78
2021/08/13 09:20:40;;;;;;;7.73;3.83;;;;;;;27.49;45.57;101274.68;124854;1093;64289;-77
2021/08/13 09:23:08;;;;;;;5.40;3.30;;;;;;;27.65;45.14;101273.58;124939;1093;64271;-79
2021/08/13 09:25:35;;;;;;;6.10;4.73;;;;;;;27.77;45.07;101269.72;124875;1092;64317;-79
2021/08/13 09:28:02;;;;;;;7.40;4.07;;;;;;;27.93;45.75;101276.00;124883;1093;64409;-79
2021/08/13 09:30:43;;;;;;;6.37;4.33;;;;;;;28.12;44.91;101266.10;124950;1093;64298;-82
2021/08/13 09:33:10;;;;;;;5.73;3.80;;;;;;;28.27;43.87;101267.95;124856;1092;64277;-79
2021/08/13 09:35:40;;;;;;;6.60;4.13;;;;;;;28.34;43.31;101257.53;124871;1092;64297;-79
2021/08/13 09:38:14;;;;;;;6.07;3.90;;;;;;;28.47;44.46;101259.64;125143;1092;64355;-79
2021/08/13 09:40:44;;;;;;;4.43;3.43;;;;;;;28.53;42.75;101265.92;124867;1093;64884;-78
2021/08/13 09:43:11;;;;;;;5.33;3.80;;;;;;;28.49;42.35;101264.85;124919;1092;64776;-79
2021/08/13 09:45:41;;;;;;;6.53;4.13;;;;;;;28.43;43.06;101266.75;124824;1093;64288;-80
2021/08/13 09:48:23;;;;;;;5.43;3.63;;;;;;;28.33;42.86;101271.45;124924;1092;64294;-81
2021/08/13 09:50:50;;;;;;;6.27;3.90;;;;;;;28.28;43.85;101269.56;124916;1091;64288;-78
2021/08/13 09:53:17;;;;;;;6.20;3.83;;;;;;;28.27;43.44;101259.77;124820;1093;64798;-78
2021/08/13 09:55:44;;;;;;;6.53;4.00;;;;;;;28.39;44.20;101262.14;124950;1092;64755;-80
2021/08/13 09:58:23;;;;;;;5.27;4.03;;;;;;;28.54;43.11;101261.27;124858;1093;64230;-79
2021/08/13 10:00:51;;;;;;;7.93;4.43;;;;;;;28.59;42.60;101275.72;124949;1093;64313;-79
2021/08/13 10:03:18;;;;;;;7.43;4.00;;;;;;;28.66;42.72;101275.40;124827;1093;65062;-78
2021/08/13 10:06:02;;;;;;;5.23;3.70;;;;;;;28.89;42.93;101257.50;124964;1093;64201;-80
2021/08/13 10:08:46;;;;;;;5.30;3.83;;;;;;;29.05;41.90;101247.25;124965;1093;64249;-78
2021/08/13 10:11:14;;;;;;;5.20;4.30;;;;;;;29.19;41.73;101250.99;125023;1093;64335;-80
2021/08/13 10:13:42;;;;;;;7.33;3.90;;;;;;;29.41;42.63;101252.42;125199;1092;64291;-78
2021/08/13 10:16:09;;;;;;;4.63;3.67;;;;;;;29.40;38.76;101261.74;124916;1093;64393;-78
2021/08/13 10:18:37;;;;;;;5.90;3.60;;;;;;;29.39;39.19;101251.90;124781;1093;64429;-77
2021/08/13 10:21:04;;;;;;;5.13;3.80;;;;;;;29.26;40.05;101258.85;124762;1093;64319;-83
2021/08/13 10:23:32;;;;;;;5.43;3.27;;;;;;;29.32;39.92;101249.51;124844;1093;64773;-80
2021/08/13 10:26:03;;;;;;;5.40;3.33;;;;;;;29.45;41.02;101242.55;124961;1093;64272;-79
2021/08/13 10:28:30;;;;;;;4.53;3.60;;;;;;;29.61;39.19;101252.23;125032;1093;64439;-79
2021/08/13 10:30:58;;;;;;;6.10;3.87;;;;;;;29.79;40.48;101258.89;125097;1092;64563;-79
2021/08/13 10:33:26;;;;;;;5.47;3.60;;;;;;;29.78;39.49;101261.94;124880;1093;64262;-80
2021/08/13 10:35:55;;;;;;;5.63;3.80;;;;;;;29.67;39.12;101256.55;124866;1093;64294;-79
2021/08/13 10:38:25;;;;;;;4.30;2.70;;;;;;;29.61;40.20;101257.70;125007;1093;64192;-78
2021/08/13 10:40:52;;;;;;;7.00;3.53;;;;;;;29.63;39.87;101257.42;124928;1093;64383;-79
2021/08/13 10:43:27;;;;;;;5.20;3.97;;;;;;;29.63;40.24;101260.95;124818;1093;64348;-78
2021/08/13 10:45:56;;;;;;;4.77;3.47;;;;;;;29.57;40.64;101251.17;124947;1092;64311;-78
2021/08/13 10:48:32;;;;;;;5.97;4.20;;;;;;;29.45;40.04;101262.48;124946;1092;64218;-79
2021/08/13 10:51:01;;;;;;;5.40;3.50;;;;;;;29.42;41.72;101265.00;124937;1093;64582;-78
2021/08/13 10:53:34;;;;;;;5.17;3.07;;;;;;;29.55;41.36;101253.39;124838;1093;64416;-82
2021/08/13 10:56:03;;;;;;;6.70;3.63;;;;;;;29.63;40.36;101239.09;125058;1093;64275;-78
2021/08/13 10:58:36;;;;;;;4.90;3.50;;;;;;;29.82;40.91;101238.38;125144;1093;64314;-79
2021/08/13 11:01:07;;;;;;;5.35;3.55;;;;;;;29.99;41.05;101233.23;125223;1092;64227;-77
2021/08/13 11:03:40;;;;;;;4.50;4.00;;;;;;;30.11;39.76;101243.73;125519;1093;64160;-80
2021/08/13 11:06:08;;;;;;;7.13;3.30;;;;;;;30.18;39.29;101235.19;124950;1092;64364;-80
2021/08/13 11:08:41;;;;;;;5.37;3.30;;;;;;;30.17;40.05;101230.81;124799;1093;64227;-80
2021/08/13 11:11:12;;;;;;;5.93;4.17;;;;;;;30.19;39.47;101234.88;124981;1093;64335;-80
2021/08/13 11:13:44;;;;;;;5.37;3.53;;;;;;;30.13;39.38;101230.58;124875;1092;64245;-78
2021/08/13 11:16:26;;;;;;;4.23;3.30;;;;;;;30.24;40.58;101232.09;124868;1092;64272;-78
2021/08/13 11:18:58;;;;;;;3.60;2.93;;;;;;;30.54;40.21;101227.31;124995;1092;64336;-78
2021/08/13 11:21:48;;;;;;;5.03;3.70;;;;;;;30.65;38.84;101215.09;125117;1093;64277;-79
2021/08/13 11:24:17;;;;;;;8.60;3.83;;;;;;;30.82;39.40;101208.26;124954;1093;64275;-79